Time;durP1;ratioP1;P1;durP2;ratioP2;P2;SDS_P1;SDS_P2;PMS_P1;PMS_P2;Temp;Humidity;BMP_temperature;BMP_pressure;BME280_temperature;BME280_humidity;BME280_pressure;Samples;Min_cycle;Max_cycle;Signal;HPM_P1;HPM_P2
2023/08/31 00:00:45;;;;;;;2.07;1.87;;;12.90;99.90;13.00;99636.00;;;;5027041;27;107991;-67
2023/08/31 00:03:12;;;;;;;2.30;2.10;;;13.00;99.90;13.00;99636.00;;;;5029331;27;111344;-66
2023/08/31 00:05:42;;;;;;;2.33;2.00;;;13.00;99.90;13.00;99647.00;;;;5025371;27;87845;-67
2023/08/31 00:08:09;;;;;;;2.43;1.47;;;13.00;99.90;13.10;99645.00;;;;5012356;27;88231;-67
2023/08/31 00:10:35;;;;;;;2.03;1.70;;;13.10;99.90;13.10;99650.00;;;;5026257;27;88849;-66
2023/08/31 00:13:08;;;;;;;4.43;2.03;;;13.10;99.90;13.20;99650.00;;;;5026654;27;111536;-66
2023/08/31 00:15:41;;;;;;;2.63;2.17;;;13.10;99.90;13.30;99654.00;;;;5028749;27;87874;-66
2023/08/31 00:18:06;;;;;;;1.80;1.70;;;13.20;99.90;13.30;99659.00;;;;5030479;27;88193;-66
2023/08/31 00:20:33;;;;;;;1.63;1.53;;;13.30;99.90;13.40;99648.00;;;;5025389;27;104120;-66
2023/08/31 00:22:59;;;;;;;3.17;2.23;;;13.30;99.90;13.40;99655.00;;;;5026264;27;87670;-66
2023/08/31 00:25:25;;;;;;;1.43;1.33;;;13.40;99.90;13.50;99661.00;;;;5012070;27;88123;-66
2023/08/31 00:27:52;;;;;;;2.60;2.10;;;13.40;99.90;13.50;99662.00;;;;5022759;27;89261;-67
2023/08/31 00:30:18;;;;;;;2.77;1.83;;;13.40;99.90;13.60;99659.00;;;;5026441;27;89328;-66
2023/08/31 00:32:43;;;;;;;1.33;1.23;;;13.50;99.90;13.60;99667.00;;;;5024182;27;100032;-67
2023/08/31 00:35:10;;;;;;;2.40;2.20;;;13.50;99.90;13.60;99670.00;;;;5023095;27;108123;-67
2023/08/31 00:37:36;;;;;;;1.97;1.77;;;13.60;99.90;13.70;99676.00;;;;5020274;27;88310;-68
2023/08/31 00:40:04;;;;;;;1.37;1.23;;;13.30;99.90;13.70;99670.00;;;;5023407;27;87687;-67
2023/08/31 00:42:30;;;;;;;2.47;2.03;;;13.70;99.90;13.80;99680.00;;;;5024173;27;87854;-67
2023/08/31 00:44:56;;;;;;;2.83;2.10;;;13.70;99.90;13.90;99675.00;;;;5028544;27;87294;-66
2023/08/31 00:47:22;;;;;;;1.57;1.47;;;13.80;99.90;14.00;99681.00;;;;5030656;27;88690;-66
2023/08/31 00:49:49;;;;;;;2.57;1.80;;;13.80;99.90;14.00;99677.00;;;;5029269;27;88676;-67
2023/08/31 00:52:15;;;;;;;1.93;1.70;;;13.90;99.90;14.10;99668.00;;;;5034164;27;89058;-67
2023/08/31 00:54:42;;;;;;;3.70;2.10;;;14.00;99.90;14.20;99675.00;;;;5031410;27;93546;-66
2023/08/31 00:57:08;;;;;;;2.43;1.33;;;14.10;99.90;14.20;99680.00;;;;5026255;27;88329;-65
2023/08/31 00:59:34;;;;;;;1.37;1.27;;;14.10;99.90;14.30;99678.00;;;;5027060;27;109806;-65
2023/08/31 01:02:21;;;;;;;1.63;1.50;;;14.20;99.90;14.40;99671.00;;;;5022925;27;110288;-66
2023/08/31 01:05:08;;;;;;;1.63;1.37;;;14.30;99.90;14.50;99676.00;;;;5004237;27;87739;-68
2023/08/31 01:07:54;;;;;;;1.57;1.47;;;14.40;99.90;14.50;99669.00;;;;5021304;27;87801;-65
2023/08/31 01:10:32;;;;;;;1.75;1.33;;;14.50;99.90;14.60;99664.00;;;;5008478;27;88348;-68
2023/08/31 01:13:13;;;;;;;1.50;1.40;;;14.50;99.90;14.70;99656.00;;;;5003863;27;99322;-67
2023/08/31 01:15:42;;;;;;;1.93;1.40;;;14.60;99.90;14.70;99651.00;;;;5014105;27;87824;-67
2023/08/31 01:18:10;;;;;;;2.10;0.97;;;14.60;99.90;14.70;99652.00;;;;5006863;27;89626;-66
2023/08/31 01:20:51;;;;;;;1.00;0.90;;;14.60;99.90;14.70;99649.00;;;;5007839;27;107935;-67
2023/08/31 01:23:19;;;;;;;0.75;0.75;;;14.70;99.90;14.80;99650.00;;;;5021631;27;88124;-66
2023/08/31 01:25:48;;;;;;;1.30;1.08;;;14.70;99.90;14.80;99649.00;;;;5007627;27;88249;-65
2023/08/31 01:28:19;;;;;;;3.28;0.80;;;14.70;99.90;14.80;99653.00;;;;5029496;27;88655;-67
2023/08/31 01:30:45;;;;;;;2.10;1.00;;;14.70;99.90;14.80;99648.00;;;;5024574;27;115127;-66
2023/08/31 01:33:12;;;;;;;0.63;0.63;;;14.80;99.90;14.80;99637.00;;;;5025915;27;109680;-66
2023/08/31 01:35:46;;;;;;;0.75;0.75;;;14.80;99.90;14.90;99634.00;;;;5027969;27;86865;-66
2023/08/31 01:38:16;;;;;;;0.60;0.60;;;14.80;99.90;14.80;99638.00;;;;5023403;27;109491;-68
2023/08/31 01:40:50;;;;;;;1.30;0.65;;;15.40;99.90;14.90;99646.00;;;;5027458;27;88220;-67
2023/08/31 01:43:17;;;;;;;0.68;0.65;;;14.80;99.90;14.90;99645.00;;;;5021128;27;101712;-66
2023/08/31 01:45:45;;;;;;;0.68;0.57;;;14.80;99.90;14.90;99653.00;;;;5001968;27;109607;-66
2023/08/31 01:48:11;;;;;;;0.82;0.57;;;14.80;99.90;14.90;99656.00;;;;5004713;27;114585;-66
2023/08/31 01:50:37;;;;;;;0.75;0.68;;;14.80;99.90;14.90;99648.00;;;;5013141;27;88049;-66
2023/08/31 01:53:02;;;;;;;0.50;0.50;;;14.80;99.90;14.80;99647.00;;;;5026156;27;87808;-67
2023/08/31 01:55:28;;;;;;;1.00;0.65;;;14.80;99.90;14.80;99644.00;;;;5025292;27;87843;-66
2023/08/31 01:57:54;;;;;;;0.50;0.30;;;14.80;99.90;14.70;99647.00;;;;5024273;27;119362;-65
2023/08/31 02:00:20;;;;;;;0.70;0.50;;;14.70;99.90;14.70;99657.00;;;;5024228;27;88741;-66
2023/08/31 02:02:46;;;;;;;0.30;0.30;;;14.70;99.90;14.70;99658.00;;;;5028706;27;87853;-66
2023/08/31 02:05:11;;;;;;;0.50;0.50;;;14.60;99.90;14.60;99665.00;;;;5027382;27;88673;-66
2023/08/31 02:07:40;;;;;;;0.40;0.30;;;14.60;99.90;14.50;99674.00;;;;5023485;27;96056;-66
2023/08/31 02:10:06;;;;;;;0.63;0.53;;;14.50;99.90;14.50;99675.00;;;;4989872;27;117150;-66
2023/08/31 02:12:33;;;;;;;0.85;0.35;;;14.50;99.90;14.50;99671.00;;;;5026021;27;99937;-67
2023/08/31 02:14:59;;;;;;;0.38;0.38;;;14.40;99.90;14.50;99675.00;;;;5003947;27;99477;-67
2023/08/31 02:17:25;;;;;;;2.85;1.08;;;14.50;99.90;14.50;99694.00;;;;5023184;27;88218;-67
2023/08/31 02:19:51;;;;;;;0.50;0.43;;;14.50;99.90;14.50;99698.00;;;;5022970;27;117045;-67
2023/08/31 02:22:17;;;;;;;0.87;0.70;;;14.50;99.90;14.50;99702.00;;;;5023505;27;103009;-67
2023/08/31 02:24:42;;;;;;;0.50;0.50;;;14.50;99.90;14.50;99703.00;;;;5023525;27;87691;-66
2023/08/31 02:27:08;;;;;;;0.53;0.50;;;14.50;99.90;14.50;99715.00;;;;5023100;27;116854;-66
2023/08/31 02:29:34;;;;;;;0.53;0.53;;;14.50;99.90;14.50;99719.00;;;;5024322;27;117383;-65
2023/08/31 02:32:00;;;;;;;0.98;0.93;;;14.50;99.90;14.50;99721.00;;;;5023035;27;110053;-65
2023/08/31 02:34:25;;;;;;;0.90;0.60;;;14.50;99.90;14.50;99710.00;;;;5025070;27;87898;-66
2023/08/31 02:36:51;;;;;;;0.83;0.70;;;14.50;99.90;14.50;99712.00;;;;5028846;27;118956;-65
2023/08/31 02:39:16;;;;;;;0.43;0.40;;;14.50;99.90;14.50;99723.00;;;;5026205;27;119019;-65
2023/08/31 02:41:42;;;;;;;0.43;0.43;;;14.50;99.90;14.50;99714.00;;;;5026911;27;109794;-66
2023/08/31 02:44:08;;;;;;;0.65;0.32;;;14.50;99.90;14.50;99718.00;;;;5027122;27;88110;-65
2023/08/31 02:46:33;;;;;;;1.03;0.50;;;14.40;99.90;14.50;99720.00;;;;5021755;27;117844;-65
2023/08/31 02:48:59;;;;;;;0.87;0.63;;;14.50;99.90;14.50;99730.00;;;;5023677;27;116952;-66
2023/08/31 02:51:25;;;;;;;0.47;0.40;;;14.40;99.90;14.50;99729.00;;;;5023203;27;110095;-66
2023/08/31 02:53:52;;;;;;;0.60;0.60;;;14.50;99.90;14.50;99724.00;;;;5018997;27;107978;-66
2023/08/31 02:56:17;;;;;;;0.83;0.53;;;14.50;99.90;14.60;99726.00;;;;5019382;27;88892;-67
2023/08/31 02:58:43;;;;;;;0.43;0.43;;;14.50;99.90;14.50;99721.00;;;;5021484;27;117742;-67
2023/08/31 03:01:11;;;;;;;1.37;0.80;;;14.50;99.90;14.50;99725.00;;;;5029125;27;111066;-65
2023/08/31 03:03:38;;;;;;;0.70;0.47;;;14.50;99.90;14.50;99722.00;;;;5026499;27;88107;-66
2023/08/31 03:06:06;;;;;;;0.40;0.40;;;14.50;99.90;14.50;99735.00;;;;5022076;27;89061;-65
2023/08/31 03:08:31;;;;;;;0.73;0.60;;;14.50;99.90;14.50;99736.00;;;;5025255;27;102585;-65
2023/08/31 03:10:58;;;;;;;0.40;0.30;;;14.40;99.90;14.50;99736.00;;;;5026783;27;88431;-66
2023/08/31 03:13:24;;;;;;;0.37;0.37;;;14.40;99.90;14.40;99736.00;;;;5024116;27;87272;-67
2023/08/31 03:15:50;;;;;;;2.08;0.52;;;14.40;99.90;14.40;99734.00;;;;5023841;27;91692;-67
2023/08/31 03:18:16;;;;;;;0.50;0.43;;;14.40;99.90;14.30;99737.00;;;;5026134;27;96491;-67
2023/08/31 03:20:41;;;;;;;0.30;0.30;;;14.30;99.90;14.30;99733.00;;;;5026149;27;109914;-65
2023/08/31 03:23:07;;;;;;;0.43;0.22;;;14.30;99.90;14.20;99732.00;;;;5029636;27;109526;-65
2023/08/31 03:25:33;;;;;;;0.40;0.40;;;14.20;99.90;14.20;99741.00;;;;5028428;27;87936;-65
2023/08/31 03:27:58;;;;;;;0.97;0.33;;;14.20;99.90;14.20;99749.00;;;;5024274;27;117682;-65
2023/08/31 03:30:24;;;;;;;0.53;0.53;;;14.10;99.90;14.10;99748.00;;;;5029982;27;110931;-66
2023/08/31 03:32:50;;;;;;;0.30;0.30;;;14.10;99.90;14.00;99743.00;;;;5022425;27;107598;-66
2023/08/31 03:35:16;;;;;;;0.40;0.40;;;14.10;99.90;14.00;99751.00;;;;5015173;27;111858;-66
2023/08/31 03:37:41;;;;;;;0.50;0.50;;;14.00;99.90;13.90;99747.00;;;;5023033;27;107826;-66
2023/08/31 03:40:08;;;;;;;0.53;0.53;;;13.90;99.90;13.90;99758.00;;;;5032197;27;110572;-66
2023/08/31 03:42:35;;;;;;;0.63;0.43;;;13.90;99.90;13.80;99761.00;;;;5033016;27;88038;-67
2023/08/31 03:45:01;;;;;;;0.27;0.27;;;13.90;99.90;13.80;99754.00;;;;5026638;27;89822;-67
2023/08/31 03:47:27;;;;;;;0.40;0.40;;;13.80;99.90;13.70;99766.00;;;;5026299;27;89432;-66
2023/08/31 03:49:52;;;;;;;0.40;0.40;;;13.70;99.90;13.70;99776.00;;;;5028908;27;87745;-66
2023/08/31 03:52:18;;;;;;;2.33;0.67;;;13.70;99.90;13.70;99779.00;;;;5028888;27;97989;-66
2023/08/31 03:54:45;;;;;;;0.60;0.43;;;13.70;99.90;13.70;99776.00;;;;5026557;27;89003;-65
2023/08/31 03:57:10;;;;;;;0.60;0.50;;;13.70;99.90;13.70;99780.00;;;;5025787;27;97471;-65
2023/08/31 03:59:36;;;;;;;0.57;0.50;;;13.70;99.90;13.70;99786.00;;;;5023453;27;111169;-66
2023/08/31 04:02:02;;;;;;;0.60;0.40;;;13.70;99.90;13.70;99778.00;;;;5028655;27;108913;-66
2023/08/31 04:04:27;;;;;;;1.20;0.63;;;13.70;99.90;13.70;99783.00;;;;5027031;27;89365;-67
2023/08/31 04:06:53;;;;;;;0.43;0.40;;;13.70;99.90;13.70;99785.00;;;;5018926;27;111859;-67
2023/08/31 04:09:19;;;;;;;2.13;0.67;;;13.60;99.90;13.60;99783.00;;;;5023715;27;109830;-66
2023/08/31 04:11:44;;;;;;;0.20;0.20;;;13.60;99.90;13.60;99784.00;;;;5024740;27;87866;-65
2023/08/31 04:14:13;;;;;;;0.37;0.37;;;13.60;99.90;13.60;99791.00;;;;5023660;27;117142;-66
2023/08/31 04:16:39;;;;;;;2.00;0.53;;;13.50;99.90;13.50;99791.00;;;;5024005;27;87599;-67
2023/08/31 04:19:04;;;;;;;1.17;0.60;;;13.50;99.90;13.50;99799.00;;;;5026765;27;110469;-67
2023/08/31 04:21:30;;;;;;;0.30;0.30;;;13.50;99.90;13.50;99802.00;;;;5026932;27;108354;-68
2023/08/31 04:23:56;;;;;;;1.80;0.50;;;13.50;99.90;13.50;99805.00;;;;5021423;27;117339;-67
2023/08/31 04:26:23;;;;;;;0.50;0.37;;;13.50;99.90;13.50;99804.00;;;;5025974;27;88311;-67
2023/08/31 04:28:49;;;;;;;1.27;0.57;;;13.50;99.90;13.50;99804.00;;;;5025641;27;88170;-67
2023/08/31 04:31:15;;;;;;;0.77;0.53;;;13.50;99.90;13.50;99809.00;;;;5029665;27;109385;-67
2023/08/31 04:33:40;;;;;;;0.30;0.30;;;13.50;99.90;13.50;99819.00;;;;5033966;27;100348;-67
2023/08/31 04:36:06;;;;;;;0.40;0.30;;;13.50;99.90;13.60;99802.00;;;;5028963;27;89973;-66
2023/08/31 04:38:38;;;;;;;0.30;0.30;;;13.50;99.90;13.60;99804.00;;;;5021278;27;87714;-67
2023/08/31 04:41:04;;;;;;;1.00;0.67;;;13.50;99.90;13.60;99805.00;;;;5020210;27;108616;-67
2023/08/31 04:43:30;;;;;;;0.43;0.43;;;13.60;99.90;13.60;99803.00;;;;5021754;27;88192;-66
2023/08/31 04:45:55;;;;;;;0.50;0.30;;;13.60;99.90;13.60;99810.00;;;;5017781;27;116945;-68
2023/08/31 04:48:22;;;;;;;0.80;0.50;;;13.60;99.90;13.60;99824.00;;;;5017461;27;109400;-68
2023/08/31 04:50:47;;;;;;;0.20;0.20;;;13.60;99.90;13.60;99808.00;;;;5018428;27;87219;-66
2023/08/31 04:53:13;;;;;;;0.60;0.60;;;13.50;99.90;13.50;99811.00;;;;5021355;27;93414;-68
2023/08/31 04:55:39;;;;;;;0.60;0.40;;;13.50;99.90;13.50;99813.00;;;;5027381;27;115936;-66
2023/08/31 04:58:05;;;;;;;0.33;0.33;;;13.50;99.90;13.50;99805.00;;;;5022155;27;88628;-66
2023/08/31 05:00:31;;;;;;;1.13;0.40;;;13.50;99.90;13.50;99827.00;;;;5024185;27;109052;-66
2023/08/31 05:02:57;;;;;;;0.20;0.20;;;13.50;99.90;13.50;99829.00;;;;5024982;27;115907;-67
2023/08/31 05:05:23;;;;;;;0.30;0.23;;;13.50;99.90;13.50;99830.00;;;;5010489;27;107198;-66
2023/08/31 05:07:48;;;;;;;0.30;0.30;;;13.40;99.90;13.50;99826.00;;;;5023695;27;102150;-66
2023/08/31 05:10:14;;;;;;;0.47;0.47;;;13.40;99.90;13.50;99826.00;;;;5025651;27;107753;-66
2023/08/31 05:12:40;;;;;;;0.30;0.30;;;13.50;99.90;13.50;99832.00;;;;5027473;27;87829;-65
2023/08/31 05:15:06;;;;;;;1.07;0.70;;;13.50;99.90;13.50;99833.00;;;;5027396;27;87684;-66
2023/08/31 05:17:32;;;;;;;3.40;0.40;;;13.50;99.90;13.60;99843.00;;;;5024320;27;87845;-67
2023/08/31 05:19:58;;;;;;;0.50;0.50;;;13.50;99.90;13.60;99841.00;;;;5024966;27;87621;-67
2023/08/31 05:22:23;;;;;;;0.47;0.47;;;13.50;99.90;13.60;99841.00;;;;5020570;27;104017;-68
2023/08/31 05:24:49;;;;;;;0.30;0.30;;;13.60;99.90;13.70;99836.00;;;;5023733;27;114446;-66
2023/08/31 05:27:15;;;;;;;0.73;0.73;;;13.60;99.90;13.70;99845.00;;;;5024774;27;110540;-66
2023/08/31 05:29:41;;;;;;;0.33;0.30;;;13.70;99.90;13.80;99845.00;;;;5022430;27;98382;-67
2023/08/31 05:32:06;;;;;;;0.40;0.40;;;13.70;99.90;13.80;99845.00;;;;5026613;27;116818;-65
2023/08/31 05:34:37;;;;;;;1.47;0.60;;;13.70;99.90;13.90;99853.00;;;;5023644;27;89426;-67
2023/08/31 05:37:04;;;;;;;0.83;0.73;;;13.80;99.90;14.00;99857.00;;;;5027528;27;88015;-67
2023/08/31 05:39:31;;;;;;;0.60;0.50;;;13.90;99.90;14.00;99846.00;;;;5024790;27;87071;-65
2023/08/31 05:41:56;;;;;;;1.43;0.70;;;13.90;99.90;14.00;99859.00;;;;5023189;27;119017;-66
2023/08/31 05:44:23;;;;;;;0.83;0.73;;;14.00;99.90;14.10;99866.00;;;;5024857;27;117019;-66
2023/08/31 05:46:48;;;;;;;2.27;0.83;;;14.00;99.90;14.10;99867.00;;;;5026815;27;88907;-67
2023/08/31 05:49:14;;;;;;;1.37;0.87;;;14.00;99.90;14.10;99870.00;;;;5027099;27;107690;-65
2023/08/31 05:51:39;;;;;;;0.47;0.47;;;14.10;99.90;14.20;99869.00;;;;5027419;27;116235;-65
2023/08/31 05:54:10;;;;;;;1.50;0.60;;;14.10;99.90;14.20;99883.00;;;;5027908;27;118338;-67
2023/08/31 05:56:36;;;;;;;0.70;0.50;;;14.10;99.90;14.20;99878.00;;;;5010067;27;87898;-66
2023/08/31 05:59:02;;;;;;;1.27;0.70;;;14.20;99.90;14.20;99885.00;;;;5024526;27;87908;-66
2023/08/31 06:01:27;;;;;;;1.45;0.50;;;14.20;99.90;14.30;99882.00;;;;5025347;27;88588;-66
2023/08/31 06:03:53;;;;;;;0.85;0.63;;;14.20;99.90;14.30;99878.00;;;;5022094;27;117620;-65
2023/08/31 06:06:19;;;;;;;0.53;0.53;;;14.20;99.90;14.40;99883.00;;;;5020712;27;110587;-67
2023/08/31 06:08:44;;;;;;;0.88;0.88;;;14.30;99.90;14.40;99892.00;;;;5006869;27;108951;-66
2023/08/31 06:11:10;;;;;;;1.27;0.70;;;14.30;99.90;14.50;99889.00;;;;5023967;27;92817;-65
2023/08/31 06:13:37;;;;;;;0.70;0.70;;;14.40;99.90;14.50;99891.00;;;;5028343;27;89143;-67
2023/08/31 06:16:03;;;;;;;0.67;0.67;;;14.50;99.90;14.60;99895.00;;;;5023880;27;102216;-68
2023/08/31 06:18:29;;;;;;;1.00;0.73;;;14.50;99.90;14.60;99895.00;;;;5028575;27;107362;-67
2023/08/31 06:20:54;;;;;;;0.90;0.90;;;14.50;99.90;14.70;99889.00;;;;5011409;27;90326;-66
2023/08/31 06:23:20;;;;;;;1.20;0.70;;;14.60;99.90;14.80;99883.00;;;;5029190;27;117269;-67
2023/08/31 06:25:46;;;;;;;1.83;0.87;;;14.70;99.90;14.80;99900.00;;;;5034145;27;87958;-65
2023/08/31 06:28:12;;;;;;;1.20;0.77;;;14.70;99.90;14.90;99888.00;;;;5030340;27;87097;-66
2023/08/31 06:30:38;;;;;;;4.00;1.05;;;14.80;99.90;14.90;99904.00;;;;5028548;27;88679;-66
2023/08/31 06:33:04;;;;;;;1.10;1.00;;;14.80;99.90;15.00;99895.00;;;;5024581;27;88653;-66
2023/08/31 06:35:31;;;;;;;2.40;1.20;;;14.90;99.90;15.00;99896.00;;;;5030293;27;89148;-67
2023/08/31 06:37:57;;;;;;;0.60;0.60;;;15.00;99.90;15.10;99898.00;;;;5029431;27;87957;-66
2023/08/31 06:40:24;;;;;;;0.85;0.50;;;15.00;99.90;15.10;99905.00;;;;5033992;27;87680;-65
2023/08/31 06:42:49;;;;;;;2.58;0.82;;;15.00;99.90;15.10;99900.00;;;;5032112;27;118331;-66
2023/08/31 06:45:18;;;;;;;1.00;0.97;;;15.00;99.90;15.10;99905.00;;;;5034252;27;110667;-65
2023/08/31 06:47:44;;;;;;;1.70;0.90;;;15.10;99.90;15.20;99915.00;;;;5030748;27;87712;-65
2023/08/31 06:50:09;;;;;;;3.33;1.20;;;15.10;99.90;15.20;99914.00;;;;5030403;27;116996;-66
2023/08/31 06:52:36;;;;;;;0.70;0.70;;;15.10;99.90;15.30;99905.00;;;;5031198;27;116979;-65
2023/08/31 06:55:03;;;;;;;0.68;0.68;;;15.20;99.90;15.50;99915.00;;;;5028439;27;88059;-66
2023/08/31 06:57:31;;;;;;;0.95;0.95;;;15.30;99.90;15.70;99923.00;;;;5029606;27;88005;-65
2023/08/31 06:59:57;;;;;;;1.98;1.27;;;15.50;99.90;15.90;99929.00;;;;5033778;27;89773;-65
2023/08/31 07:02:26;;;;;;;2.47;1.48;;;15.70;99.90;16.10;99924.00;;;;5027520;27;116820;-65
2023/08/31 07:04:52;;;;;;;1.40;1.20;;;15.90;99.90;16.20;99934.00;;;;5029768;27;87661;-66
2023/08/31 07:07:18;;;;;;;1.83;1.00;;;16.10;99.90;16.30;99934.00;;;;5029411;27;88880;-66
2023/08/31 07:09:46;;;;;;;1.17;0.90;;;16.20;99.90;16.40;99938.00;;;;5026046;27;117303;-65
2023/08/31 07:12:11;;;;;;;1.10;0.80;;;16.30;99.90;16.40;99937.00;;;;5029214;27;87905;-65
2023/08/31 07:14:38;;;;;;;0.75;0.73;;;16.30;99.90;16.50;99939.00;;;;5028148;27;110525;-65
2023/08/31 07:17:04;;;;;;;1.17;1.00;;;16.10;99.90;16.40;99936.00;;;;5032202;27;87187;-68
2023/08/31 07:19:30;;;;;;;2.38;1.42;;;16.40;99.90;16.50;99952.00;;;;5028426;27;87741;-67
2023/08/31 07:21:55;;;;;;;1.85;1.00;;;16.40;99.90;16.50;99942.00;;;;5032960;27;88668;-67
2023/08/31 07:24:24;;;;;;;1.33;1.17;;;16.40;99.90;16.60;99945.00;;;;5032351;27;88738;-64
2023/08/31 07:26:50;;;;;;;1.67;1.20;;;16.50;99.90;16.60;99942.00;;;;5030092;27;101825;-66
2023/08/31 07:29:16;;;;;;;0.70;0.70;;;16.50;99.90;16.70;99944.00;;;;5029885;27;115959;-65
2023/08/31 07:31:42;;;;;;;0.85;0.85;;;16.60;99.90;16.80;99945.00;;;;5025558;27;116901;-67
2023/08/31 07:34:07;;;;;;;2.20;1.08;;;16.60;99.90;16.90;99956.00;;;;5023401;27;89278;-65
2023/08/31 07:36:34;;;;;;;2.33;1.33;;;16.70;99.90;17.20;99955.00;;;;5024006;27;109548;-65
2023/08/31 07:38:59;;;;;;;1.08;0.98;;;16.90;99.90;17.20;99958.00;;;;5024367;27;88748;-66
2023/08/31 07:41:25;;;;;;;2.10;1.23;;;17.10;99.90;17.30;99965.00;;;;5027097;27;116554;-66
2023/08/31 07:43:51;;;;;;;1.13;0.90;;;17.10;99.90;17.30;99956.00;;;;5024087;27;110735;-67
2023/08/31 07:46:17;;;;;;;2.67;1.13;;;17.20;99.90;17.40;99968.00;;;;5024337;27;107746;-65
2023/08/31 07:48:43;;;;;;;1.80;1.17;;;17.20;99.90;17.40;99971.00;;;;5026465;27;89092;-66
2023/08/31 07:51:09;;;;;;;3.45;1.38;;;17.30;99.90;17.50;99971.00;;;;5022536;27;105321;-65
2023/08/31 07:53:34;;;;;;;1.45;1.08;;;17.30;99.90;17.60;99966.00;;;;5022723;27;100618;-65
2023/08/31 07:56:00;;;;;;;1.75;1.17;;;17.40;99.90;17.70;99961.00;;;;5026018;27;107974;-65
2023/08/31 07:58:26;;;;;;;1.08;1.08;;;17.50;99.90;17.80;99968.00;;;;5026817;27;108413;-65
2023/08/31 08:00:56;;;;;;;2.50;1.65;;;17.70;99.90;18.00;99970.00;;;;5023483;27;117529;-66
2023/08/31 08:03:22;;;;;;;4.03;1.27;;;17.90;99.90;18.20;99963.00;;;;5029507;27;87899;-66
2023/08/31 08:05:49;;;;;;;1.95;1.13;;;18.00;99.90;18.30;99968.00;;;;5022774;27;87300;-65
2023/08/31 08:08:14;;;;;;;1.15;0.93;;;18.10;99.90;18.30;99970.00;;;;5028477;27;104913;-66
2023/08/31 08:10:40;;;;;;;2.15;0.85;;;18.20;99.90;18.30;99971.00;;;;5027559;27;102000;-64
2023/08/31 08:13:06;;;;;;;1.48;1.30;;;18.20;99.90;18.20;99979.00;;;;5030320;27;88523;-66
2023/08/31 08:15:32;;;;;;;1.17;1.08;;;18.10;99.90;18.10;99974.00;;;;5028922;27;106915;-65
2023/08/31 08:17:58;;;;;;;1.02;0.93;;;18.10;99.90;18.10;99973.00;;;;5024688;27;88396;-65
2023/08/31 08:20:24;;;;;;;1.15;1.05;;;18.00;99.90;18.20;99973.00;;;;5029608;27;116083;-66
2023/08/31 08:22:53;;;;;;;2.90;0.90;;;18.20;99.90;18.40;99977.00;;;;5025707;27;87557;-65
2023/08/31 08:25:20;;;;;;;2.28;0.70;;;18.30;99.90;18.70;99973.00;;;;5022573;27;88164;-66
2023/08/31 08:27:46;;;;;;;2.78;1.02;;;18.50;99.90;19.00;99982.00;;;;5025393;27;88278;-65
2023/08/31 08:30:12;;;;;;;3.28;1.33;;;18.80;99.90;19.30;99978.00;;;;5026264;27;88228;-65
2023/08/31 08:32:38;;;;;;;0.85;0.70;;;19.10;99.90;19.50;99973.00;;;;5031023;27;87578;-64
2023/08/31 08:35:05;;;;;;;1.73;1.25;;;19.30;99.90;19.70;99974.00;;;;5023987;27;108360;-65
2023/08/31 08:37:33;;;;;;;2.05;0.85;;;19.50;99.90;19.90;99982.00;;;;5026744;27;89181;-66
2023/08/31 08:39:58;;;;;;;1.38;0.90;;;19.70;99.90;20.20;99982.00;;;;5020245;27;89464;-66
2023/08/31 08:42:25;;;;;;;2.15;0.95;;;19.90;99.90;20.40;99996.00;;;;5016400;27;87708;-66
2023/08/31 08:44:52;;;;;;;1.27;0.85;;;20.10;99.00;20.40;99995.00;;;;5015142;27;88004;-66
2023/08/31 08:47:20;;;;;;;0.45;0.45;;;20.30;98.10;20.20;99994.00;;;;5024342;27;107338;-65
2023/08/31 08:49:47;;;;;;;1.17;0.77;;;20.20;97.00;20.00;99988.00;;;;5028129;27;115660;-66
2023/08/31 08:52:15;;;;;;;1.40;0.50;;;20.00;96.50;19.80;99998.00;;;;5023696;27;87880;-66
2023/08/31 08:54:40;;;;;;;1.58;1.05;;;19.80;95.50;19.50;99993.00;;;;5025432;27;101203;-67
2023/08/31 08:57:06;;;;;;;2.10;0.57;;;19.60;95.40;19.20;100003.00;;;;5022441;27;108594;-64
2023/08/31 08:59:32;;;;;;;2.00;1.40;;;19.30;95.40;19.10;99996.00;;;;5023368;27;88727;-67
2023/08/31 09:01:58;;;;;;;2.05;0.70;;;19.10;95.80;19.20;100007.00;;;;5023838;27;108069;-65
2023/08/31 09:04:23;;;;;;;1.10;0.93;;;19.10;95.50;19.30;100008.00;;;;5025234;27;109914;-65
2023/08/31 09:06:52;;;;;;;0.63;0.63;;;19.20;95.80;19.60;100009.00;;;;5020306;27;118294;-65
2023/08/31 09:09:18;;;;;;;2.53;0.68;;;19.30;95.60;19.80;100005.00;;;;5028645;27;117580;-64
2023/08/31 09:11:45;;;;;;;0.90;0.73;;;19.60;95.00;19.90;100005.00;;;;5027615;27;87974;-65
2023/08/31 09:14:19;;;;;;;2.20;1.48;;;19.70;93.80;19.90;99995.00;;;;5023635;27;109062;-65
2023/08/31 09:16:47;;;;;;;0.77;0.60;;;19.80;92.70;19.90;99998.00;;;;5008430;27;87952;-67
2023/08/31 09:19:24;;;;;;;0.60;0.60;;;19.70;90.80;19.90;99991.00;;;;5027594;27;108433;-65
2023/08/31 09:21:52;;;;;;;0.90;0.60;;;19.80;90.10;20.00;100008.00;;;;5023147;27;87619;-65
2023/08/31 09:24:18;;;;;;;0.90;0.60;;;19.80;90.30;20.20;100006.00;;;;5003712;27;87664;-65
2023/08/31 09:26:46;;;;;;;1.10;0.70;;;19.90;90.20;20.30;100005.00;;;;5003397;27;89861;-65
2023/08/31 09:29:12;;;;;;;1.17;0.95;;;20.00;90.70;20.60;100010.00;;;;5007646;27;89350;-64
2023/08/31 09:31:38;;;;;;;0.55;0.55;;;20.30;88.70;20.70;100007.00;;;;5005231;27;110752;-65
2023/08/31 09:34:03;;;;;;;0.88;0.68;;;20.40;90.10;20.90;100012.00;;;;4988961;27;87927;-65
2023/08/31 09:36:29;;;;;;;1.75;0.90;;;20.60;87.90;20.90;100008.00;;;;5002675;27;118347;-65
2023/08/31 09:38:59;;;;;;;0.90;0.60;;;20.70;87.00;21.00;100003.00;;;;5003000;27;117837;-66
2023/08/31 09:41:25;;;;;;;1.95;0.65;;;20.80;88.30;21.20;100006.00;;;;5001635;27;87817;-66
2023/08/31 09:43:50;;;;;;;0.65;0.60;;;20.90;88.00;21.40;99999.00;;;;5006311;27;87121;-65
2023/08/31 09:46:16;;;;;;;1.10;0.50;;;21.10;87.00;21.60;100012.00;;;;5003832;27;118292;-66
2023/08/31 09:48:43;;;;;;;2.53;0.50;;;21.30;86.00;21.90;100015.00;;;;4985877;27;113818;-65
2023/08/31 09:51:11;;;;;;;4.82;0.90;;;22.30;84.50;21.90;100016.00;;;;5006049;27;110680;-65
2023/08/31 09:53:37;;;;;;;0.88;0.73;;;21.60;81.00;21.80;100013.00;;;;5006703;27;88041;-66
2023/08/31 09:56:06;;;;;;;0.63;0.57;;;21.60;81.40;21.90;100016.00;;;;5007340;27;87850;-66
2023/08/31 09:58:33;;;;;;;0.43;0.43;;;21.60;82.30;22.00;100015.00;;;;5002179;27;88033;-65
2023/08/31 10:00:59;;;;;;;0.60;0.60;;;21.70;82.90;22.20;100014.00;;;;5003405;27;87707;-65
2023/08/31 10:03:27;;;;;;;0.77;0.57;;;21.90;81.60;22.50;100016.00;;;;5003661;27;87954;-65
2023/08/31 10:05:56;;;;;;;1.13;0.73;;;22.10;81.00;22.70;100023.00;;;;5003687;27;90779;-65
2023/08/31 10:08:23;;;;;;;0.75;0.57;;;22.30;79.40;22.90;100022.00;;;;4989875;27;88853;-65
2023/08/31 10:10:49;;;;;;;0.52;0.52;;;22.50;74.80;22.80;100024.00;;;;5003062;27;87922;-65
2023/08/31 10:13:16;;;;;;;3.67;0.60;;;22.50;72.70;22.70;100034.00;;;;5005411;27;88286;-67
2023/08/31 10:15:44;;;;;;;1.42;0.57;;;22.40;71.70;22.60;100020.00;;;;4987194;27;89235;-65
2023/08/31 10:18:09;;;;;;;1.77;0.65;;;22.40;72.20;22.60;100023.00;;;;5004070;27;102446;-66
2023/08/31 10:20:35;;;;;;;0.30;0.30;;;22.30;72.70;22.90;100024.00;;;;5002223;27;110289;-69
2023/08/31 10:23:05;;;;;;;0.52;0.52;;;22.60;73.90;23.20;100039.00;;;;5013561;27;88072;-68
2023/08/31 10:25:49;;;;;;;1.77;0.98;;;22.80;73.00;22.90;100036.00;;;;5022716;27;99598;-66
2023/08/31 10:28:28;;;;;;;0.88;0.50;;;22.70;71.60;22.50;100043.00;;;;5023349;27;101370;-65
2023/08/31 10:31:08;;;;;;;2.88;0.93;;;22.40;73.00;22.10;100034.00;;;;5023352;27;87948;-65
2023/08/31 10:33:44;;;;;;;2.25;0.70;;;22.10;73.10;21.70;100051.00;;;;5024517;27;87831;-66
2023/08/31 10:36:16;;;;;;;0.40;0.40;;;21.70;74.00;21.30;100043.00;;;;5022812;27;87887;-66
2023/08/31 10:39:00;;;;;;;2.80;0.60;;;21.40;73.00;21.00;100046.00;;;;5025313;27;88054;-65
2023/08/31 10:41:34;;;;;;;2.80;1.00;;;21.10;74.20;21.00;100064.00;;;;5030256;27;88678;-66
2023/08/31 10:43:59;;;;;;;1.35;0.90;;;20.90;74.50;21.10;100042.00;;;;5027674;27;88330;-67
2023/08/31 10:46:32;;;;;;;2.25;0.90;;;20.90;74.50;21.40;100045.00;;;;5009276;27;87992;-67
2023/08/31 10:49:14;;;;;;;2.05;0.90;;;21.10;75.40;21.60;100039.00;;;;5023251;27;88881;-68